Time;durP1;ratioP1;P1;durP2;ratioP2;P2;SDS_P1;SDS_P2;PMS_P1;PMS_P2;Temp;Humidity;BMP_temperature;BMP_pressure;BME280_temperature;BME280_humidity;BME280_pressure;Samples;Min_cycle;Max_cycle;Signal;HPM_P1;HPM_P2
2023/05/20 00:01:39;;;;;;;3.55;1.30;;;;;;;12.06;84.91;101621.91;5158038;28;20030;-72
2023/05/20 00:04:09;;;;;;;2.33;1.30;;;;;;;12.16;84.44;101628.66;5156368;28;20551;-73
2023/05/20 00:06:40;;;;;;;2.80;1.40;;;;;;;12.14;83.56;101625.22;5156789;28;20026;-73
2023/05/20 00:09:10;;;;;;;2.10;1.08;;;;;;;12.07;84.65;101629.75;5155353;28;20030;-73
2023/05/20 00:11:40;;;;;;;3.60;1.40;;;;;;;12.07;84.53;101626.25;5157215;28;20540;-71
2023/05/20 00:14:11;;;;;;;3.78;1.20;;;;;;;11.80;85.70;101630.41;5160020;28;20026;-73
2023/05/20 00:16:42;;;;;;;2.38;1.20;;;;;;;11.74;86.59;101625.31;5159713;28;20038;-73
2023/05/20 00:19:12;;;;;;;2.78;1.20;;;;;;;11.57;87.30;101635.31;5157891;28;20084;-73
2023/05/20 00:21:42;;;;;;;2.78;1.15;;;;;;;11.77;86.57;101629.63;5160700;28;20038;-73
2023/05/20 00:24:13;;;;;;;4.50;1.38;;;;;;;11.73;86.99;101625.34;5158376;28;20081;-72
2023/05/20 00:26:43;;;;;;;2.15;1.10;;;;;;;11.78;85.89;101629.59;5161149;28;20062;-72
2023/05/20 00:29:13;;;;;;;3.67;1.30;;;;;;;11.63;86.83;101622.09;5173960;28;20030;-72
2023/05/20 00:31:44;;;;;;;2.33;1.27;;;;;;;11.50;88.04;101623.25;5159711;28;20034;-73
2023/05/20 00:34:14;;;;;;;3.35;1.25;;;;;;;11.48;88.02;101617.16;5159373;28;20127;-72
2023/05/20 00:36:44;;;;;;;2.50;1.20;;;;;;;11.62;87.85;101615.13;5159535;28;20121;-73
2023/05/20 00:39:15;;;;;;;2.08;1.17;;;;;;;11.80;87.04;101624.31;5173748;28;20045;-73
2023/05/20 00:41:45;;;;;;;2.88;1.10;;;;;;;11.90;85.71;101624.06;5178684;28;20226;-72
2023/05/20 00:44:17;;;;;;;4.32;1.40;;;;;;;11.92;85.06;101619.63;5159614;28;20552;-73
2023/05/20 00:46:48;;;;;;;2.08;1.17;;;;;;;11.85;86.52;101611.97;5158183;28;20108;-71
2023/05/20 00:49:19;;;;;;;3.72;1.30;;;;;;;11.74;86.43;101620.09;5159654;28;20018;-73
2023/05/20 00:51:50;;;;;;;2.17;1.30;;;;;;;11.67;87.62;101608.03;5157890;28;20030;-72
2023/05/20 00:54:21;;;;;;;5.55;1.25;;;;;;;11.70;87.54;101607.97;5149235;28;20034;-73
2023/05/20 00:56:52;;;;;;;4.68;1.10;;;;;;;11.56;87.43;101602.19;5157859;28;20037;-73
2023/05/20 00:59:23;;;;;;;5.43;1.55;;;;;;;11.65;87.62;101608.97;5159505;28;20226;-71
2023/05/20 01:01:53;;;;;;;3.45;1.50;;;;;;;11.65;87.59;101599.34;5172551;28;20523;-71
2023/05/20 01:04:24;;;;;;;3.53;1.27;;;;;;;11.61;87.95;101608.16;5159490;28;20080;-72
2023/05/20 01:06:54;;;;;;;3.10;1.23;;;;;;;11.61;87.88;101608.16;5157472;28;20034;-72
2023/05/20 01:09:25;;;;;;;1.90;1.15;;;;;;;11.70;87.34;101602.72;5161822;28;20026;-72
2023/05/20 01:12:21;;;;;;;3.90;1.45;;;;;;;11.64;88.30;101608.09;5161714;28;20018;-72
2023/05/20 01:15:00;;;;;;;4.57;1.40;;;;;;;11.76;87.41;101602.56;5157839;28;20074;-72
2023/05/20 01:17:31;;;;;;;2.40;1.17;;;;;;;11.82;87.52;101597.19;5165241;28;20029;-72
2023/05/20 01:20:04;;;;;;;2.75;1.30;;;;;;;11.92;86.79;101603.09;5159470;28;20098;-72
2023/05/20 01:22:45;;;;;;;3.40;1.42;;;;;;;11.80;87.84;101601.59;5168810;28;20026;-73
2023/05/20 01:25:16;;;;;;;2.67;1.40;;;;;;;11.95;86.77;101595.13;5157908;28;20304;-71
2023/05/20 01:27:47;;;;;;;3.30;1.30;;;;;;;11.93;87.17;101587.31;5165340;28;20030;-72
2023/05/20 01:30:19;;;;;;;2.08;1.20;;;;;;;11.87;87.88;101590.09;5178376;28;20037;-73
2023/05/20 01:32:56;;;;;;;4.57;1.80;;;;;;;11.98;86.13;101589.81;5157824;28;20396;-72
2023/05/20 01:35:28;;;;;;;5.25;1.50;;;;;;;11.68;87.77;101596.66;5161677;28;20084;-71
2023/05/20 01:37:59;;;;;;;3.63;1.52;;;;;;;11.67;88.42;101597.56;5162258;28;20293;-72
2023/05/20 01:40:32;;;;;;;1.88;1.17;;;;;;;11.65;89.35;101593.25;5165166;28;20029;-73
2023/05/20 01:43:03;;;;;;;3.88;1.40;;;;;;;11.59;88.88;101593.41;5164885;28;20026;-72
2023/05/20 01:45:33;;;;;;;2.42;1.23;;;;;;;11.68;89.29;101595.78;5162668;28;20060;-72
2023/05/20 01:48:04;;;;;;;3.47;1.42;;;;;;;11.67;89.50;101604.53;5161073;28;20327;-73
2023/05/20 01:50:34;;;;;;;2.38;1.20;;;;;;;11.66;89.03;101606.31;5164101;28;20030;-73
2023/05/20 01:53:07;;;;;;;4.22;1.42;;;;;;;11.77;88.65;101601.66;5162619;28;20030;-73
2023/05/20 01:55:37;;;;;;;2.85;1.40;;;;;;;11.92;87.54;101596.06;5155855;28;20031;-72
2023/05/20 01:58:08;;;;;;;3.88;1.45;;;;;;;12.10;87.46;101603.47;5155212;28;20061;-72
2023/05/20 02:00:38;;;;;;;2.67;1.30;;;;;;;12.01;88.17;101595.84;5162589;28;20180;-72
2023/05/20 02:03:10;;;;;;;2.50;1.40;;;;;;;12.06;86.94;101591.34;5162916;28;20030;-73
2023/05/20 02:05:40;;;;;;;2.55;1.20;;;;;;;12.08;87.69;101586.91;5166536;28;20026;-72
2023/05/20 02:08:10;;;;;;;2.70;1.30;;;;;;;11.94;88.11;101589.03;5164589;28;20022;-72
2023/05/20 02:10:41;;;;;;;5.78;1.40;;;;;;;11.98;88.27;101588.03;5161285;28;20038;-72
2023/05/20 02:13:11;;;;;;;2.25;1.13;;;;;;;11.72;89.29;101585.22;5161046;28;20129;-72
2023/05/20 02:15:41;;;;;;;4.55;1.40;;;;;;;11.68;89.20;101585.31;5153016;28;20281;-73
2023/05/20 02:18:12;;;;;;;2.67;1.08;;;;;;;11.72;89.61;101584.34;5166067;28;20429;-72
2023/05/20 02:20:43;;;;;;;3.42;1.42;;;;;;;11.82;89.28;101581.47;5159139;28;20047;-72
2023/05/20 02:23:13;;;;;;;4.22;1.40;;;;;;;11.80;89.33;101591.13;5165617;28;20040;-72
2023/05/20 02:25:44;;;;;;;2.65;1.40;;;;;;;11.73;90.16;101592.19;5161881;28;20026;-72
2023/05/20 02:28:15;;;;;;;2.13;1.40;;;;;;;11.87;89.55;101583.97;5162887;28;20030;-71
2023/05/20 02:30:45;;;;;;;3.10;1.65;;;;;;;11.93;89.36;101579.44;5158553;28;20085;-74
2023/05/20 02:33:17;;;;;;;3.00;1.38;;;;;;;11.92;89.10;101571.66;5165894;28;22955;-72
2023/05/20 02:35:47;;;;;;;2.50;1.48;;;;;;;11.93;88.51;101576.81;5161915;28;20396;-72
2023/05/20 02:38:17;;;;;;;3.38;1.48;;;;;;;11.93;89.00;101573.38;5159756;28;20273;-73
2023/05/20 02:40:47;;;;;;;2.95;1.60;;;;;;;11.87;88.72;101568.25;5155757;28;20034;-72
2023/05/20 02:43:18;;;;;;;2.40;1.40;;;;;;;11.88;88.68;101570.84;5164234;28;20034;-71
2023/05/20 02:45:48;;;;;;;2.63;1.30;;;;;;;12.06;88.10;101570.38;5158883;28;20030;-70
2023/05/20 02:48:18;;;;;;;3.00;1.38;;;;;;;12.11;87.83;101571.13;5158642;28;20506;-73
2023/05/20 02:50:49;;;;;;;6.78;1.52;;;;;;;12.24;87.75;101576.88;5160307;28;20102;-72
2023/05/20 02:53:19;;;;;;;3.33;1.63;;;;;;;12.22;87.25;101581.31;5165165;28;20260;-72
2023/05/20 02:55:50;;;;;;;3.10;1.38;;;;;;;12.18;87.75;101585.78;5160024;28;20518;-73
2023/05/20 02:58:25;;;;;;;3.10;1.30;;;;;;;12.09;87.93;101572.91;5157351;28;20049;-73
2023/05/20 03:00:56;;;;;;;4.10;1.43;;;;;;;12.02;88.57;101579.22;5160747;28;20117;-73
2023/05/20 03:03:26;;;;;;;3.53;1.40;;;;;;;12.04;88.38;101580.03;5166813;28;20109;-72
2023/05/20 03:05:57;;;;;;;3.90;1.73;;;;;;;11.78;90.59;101581.59;5158205;28;20105;-72
2023/05/20 03:08:28;;;;;;;3.55;1.60;;;;;;;11.79;90.53;101573.69;5162187;28;20021;-73
2023/05/20 03:10:59;;;;;;;3.85;1.50;;;;;;;11.87;89.46;101571.75;5159214;28;20396;-72
2023/05/20 03:13:30;;;;;;;4.28;1.50;;;;;;;11.91;90.13;101581.25;5164374;28;20472;-72
2023/05/20 03:16:00;;;;;;;2.65;1.35;;;;;;;11.89;89.82;101583.03;5153708;28;20026;-71
2023/05/20 03:18:30;;;;;;;4.35;1.58;;;;;;;12.07;88.80;101581.72;5165726;28;20033;-72
2023/05/20 03:21:01;;;;;;;4.88;1.70;;;;;;;12.07;89.47;101581.72;5157776;28;20476;-72
2023/05/20 03:23:31;;;;;;;4.50;1.35;;;;;;;12.03;89.22;101586.19;5160400;28;20026;-74
2023/05/20 03:26:02;;;;;;;3.78;1.70;;;;;;;11.93;90.37;101584.69;5162492;28;20439;-71
2023/05/20 03:28:32;;;;;;;2.35;1.30;;;;;;;11.95;90.28;101593.34;5164357;28;20060;-71
2023/05/20 03:31:03;;;;;;;4.07;1.80;;;;;;;12.08;89.87;101591.28;5173225;28;20567;-72
2023/05/20 03:33:34;;;;;;;4.93;1.40;;;;;;;12.23;89.58;101585.66;5165477;28;20588;-71
2023/05/20 03:36:05;;;;;;;2.83;1.40;;;;;;;12.03;90.54;101586.19;5160075;28;20404;-72
2023/05/20 03:38:35;;;;;;;3.08;1.52;;;;;;;11.90;91.34;101590.00;5163262;28;20483;-72
2023/05/20 03:41:06;;;;;;;4.32;1.30;;;;;;;11.73;92.62;101592.19;5155023;28;20033;-72
2023/05/20 03:43:36;;;;;;;3.30;1.50;;;;;;;11.71;92.20;101582.63;5164750;28;20387;-72
2023/05/20 03:46:06;;;;;;;3.00;1.48;;;;;;;11.73;93.07;101579.09;5176297;28;20556;-72
2023/05/20 03:48:36;;;;;;;3.33;1.52;;;;;;;11.79;92.37;101584.16;5161218;28;20042;-71
2023/05/20 03:51:07;;;;;;;3.38;1.70;;;;;;;11.80;93.18;101583.25;5179139;28;20571;-74
2023/05/20 03:53:37;;;;;;;4.18;1.80;;;;;;;11.70;92.59;101596.63;5168309;28;20088;-72
2023/05/20 03:56:07;;;;;;;2.63;1.60;;;;;;;11.62;92.34;101588.94;5166750;28;20038;-72
2023/05/20 03:58:38;;;;;;;3.97;1.50;;;;;;;11.72;93.09;101593.06;5160671;28;20495;-72
2023/05/20 04:01:12;;;;;;;4.07;1.60;;;;;;;11.71;92.27;101599.22;5158933;28;20073;-72
2023/05/20 04:03:42;;;;;;;3.95;1.90;;;;;;;11.60;92.62;101587.28;5167489;28;20026;-72
2023/05/20 04:06:13;;;;;;;4.78;1.58;;;;;;;11.55;93.34;101597.81;5164196;28;20266;-72
2023/05/20 04:08:43;;;;;;;3.10;1.50;;;;;;;11.52;94.14;101587.41;5165743;28;20442;-72
2023/05/20 04:11:13;;;;;;;4.15;1.63;;;;;;;11.59;94.32;101585.56;5165382;28;20511;-72
2023/05/20 04:13:43;;;;;;;3.38;1.55;;;;;;;11.51;93.37;101590.06;5163855;28;20055;-73
2023/05/20 04:16:14;;;;;;;5.38;1.70;;;;;;;11.50;93.29;101583.97;5165253;28;20057;-72
2023/05/20 04:18:44;;;;;;;3.35;1.70;;;;;;;11.57;93.79;101587.31;5160165;28;20288;-72
2023/05/20 04:21:15;;;;;;;4.15;1.80;;;;;;;11.55;94.12;101595.19;5161074;28;20027;-72
2023/05/20 04:23:46;;;;;;;5.28;1.40;;;;;;;11.58;93.01;101591.69;5164669;28;20389;-72
2023/05/20 04:26:16;;;;;;;4.07;1.75;;;;;;;11.50;93.62;101597.06;5154066;28;20053;-72
2023/05/20 04:28:49;;;;;;;4.18;1.80;;;;;;;11.23;95.09;101595.06;5162140;28;20034;-72
2023/05/20 04:31:25;;;;;;;5.43;1.67;;;;;;;11.29;94.97;101597.53;5159711;28;20030;-74
2023/05/20 04:33:56;;;;;;;2.55;1.40;;;;;;;11.31;95.63;101590.50;5154638;28;20026;-74
2023/05/20 04:36:27;;;;;;;3.65;1.70;;;;;;;11.54;94.72;101590.84;5177252;28;20018;-72
2023/05/20 04:38:57;;;;;;;5.18;1.60;;;;;;;11.34;94.70;101593.06;5158137;28;20030;-72
2023/05/20 04:41:28;;;;;;;3.28;1.63;;;;;;;11.18;95.80;101596.03;5172032;28;20021;-74
2023/05/20 04:44:00;;;;;;;4.13;1.83;;;;;;;11.23;96.78;101594.19;5157505;28;20177;-72
2023/05/20 04:46:32;;;;;;;4.15;2.00;;;;;;;11.25;95.65;101587.19;5167598;28;20069;-70
2023/05/20 04:49:03;;;;;;;2.95;1.70;;;;;;;11.21;96.00;101588.13;5161710;28;20045;-72
2023/05/20 04:51:34;;;;;;;4.60;1.70;;;;;;;11.27;96.25;101594.09;5154404;28;20400;-72
2023/05/20 04:54:05;;;;;;;4.40;1.92;;;;;;;11.36;95.46;101585.16;5158365;28;20534;-72
2023/05/20 04:56:35;;;;;;;3.22;1.50;;;;;;;11.26;96.82;101591.53;5154875;28;20559;-72
2023/05/20 04:59:05;;;;;;;6.15;1.60;;;;;;;11.28;96.79;101587.94;5157588;28;20085;-72
2023/05/20 05:01:36;;;;;;;7.10;2.08;;;;;;;11.38;96.05;101599.97;5166001;28;20036;-73
2023/05/20 05:04:06;;;;;;;2.95;1.58;;;;;;;11.34;95.72;101592.19;5163486;28;20026;-71
2023/05/20 05:06:36;;;;;;;3.00;1.77;;;;;;;11.43;95.90;101592.84;5165910;28;20025;-72
2023/05/20 05:09:06;;;;;;;3.70;1.90;;;;;;;11.40;95.79;101586.81;5161800;28;20743;-72
2023/05/20 05:11:37;;;;;;;6.00;2.08;;;;;;;11.41;96.62;101586.78;5179612;28;20053;-71
2023/05/20 05:14:08;;;;;;;4.45;1.92;;;;;;;11.40;96.84;101582.47;5153326;28;20034;-73
2023/05/20 05:16:38;;;;;;;6.05;2.28;;;;;;;11.33;97.51;101591.34;5164422;28;20388;-72
2023/05/20 05:19:08;;;;;;;6.35;1.90;;;;;;;11.35;98.02;101581.72;5160637;28;20030;-73
2023/05/20 05:21:39;;;;;;;4.18;1.98;;;;;;;11.44;97.66;101589.34;5162478;28;20025;-71
2023/05/20 05:24:09;;;;;;;4.97;1.98;;;;;;;11.58;96.62;101582.06;5165231;28;20030;-73
2023/05/20 05:26:40;;;;;;;3.55;1.83;;;;;;;11.56;97.41;101583.84;5160838;28;20096;-72
2023/05/20 05:29:10;;;;;;;8.38;2.25;;;;;;;11.63;96.86;101584.56;5159589;28;20037;-73
2023/05/20 05:31:40;;;;;;;3.72;1.90;;;;;;;11.75;97.18;101579.06;5162277;28;20436;-72
2023/05/20 05:34:10;;;;;;;6.28;2.15;;;;;;;11.71;96.89;101580.88;5161746;28;20323;-72
2023/05/20 05:36:41;;;;;;;3.90;2.13;;;;;;;11.66;97.62;101581.88;5159923;28;20057;-74
2023/05/20 05:39:11;;;;;;;4.15;2.20;;;;;;;11.66;97.91;101580.13;5159255;28;20038;-73
2023/05/20 05:41:41;;;;;;;4.28;2.05;;;;;;;11.74;97.58;101580.81;5165160;28;20031;-73
2023/05/20 05:44:12;;;;;;;5.63;2.53;;;;;;;11.81;97.16;101579.75;5160904;28;20049;-72
2023/05/20 05:46:42;;;;;;;4.90;2.15;;;;;;;11.85;97.50;101580.53;5164866;28;20038;-73
2023/05/20 05:49:12;;;;;;;5.20;1.90;;;;;;;11.89;96.72;101571.69;5160806;28;20048;-72
2023/05/20 05:51:42;;;;;;;4.10;2.17;;;;;;;11.89;96.52;101574.31;5161225;28;20023;-73
2023/05/20 05:54:13;;;;;;;6.75;2.00;;;;;;;11.91;96.49;101576.00;5161225;28;20332;-72
2023/05/20 05:56:43;;;;;;;6.53;2.50;;;;;;;12.02;96.79;101575.72;5162851;28;20516;-73
2023/05/20 05:59:14;;;;;;;7.55;2.67;;;;;;;12.04;97.17;101576.56;5163835;28;20030;-73
2023/05/20 06:01:45;;;;;;;4.78;2.33;;;;;;;11.97;97.28;101570.59;5159082;28;20402;-72
2023/05/20 06:04:15;;;;;;;4.70;2.42;;;;;;;12.00;97.10;101573.16;5160385;28;20022;-72
2023/05/20 06:06:47;;;;;;;4.95;2.75;;;;;;;12.17;96.51;101570.09;5158332;28;20480;-72
2023/05/20 06:09:17;;;;;;;5.57;2.65;;;;;;;12.32;96.22;101578.41;5158374;28;20030;-73
2023/05/20 06:11:47;;;;;;;10.50;3.28;;;;;;;12.27;96.44;101559.31;5152999;28;20460;-74
2023/05/20 06:14:17;;;;;;;5.10;2.50;;;;;;;12.42;95.89;101564.16;5157901;28;20113;-72
2023/05/20 06:16:48;;;;;;;4.80;2.78;;;;;;;12.68;94.43;101555.56;5156644;28;20034;-72
2023/05/20 06:19:18;;;;;;;5.43;2.70;;;;;;;12.69;93.97;101552.91;5155241;28;20443;-71
2023/05/20 06:21:48;;;;;;;6.43;3.05;;;;;;;13.05;92.85;101551.88;5160620;28;20037;-72
2023/05/20 06:24:19;;;;;;;3.85;2.40;;;;;;;13.27;92.53;101548.53;5162778;28;20153;-72
2023/05/20 06:26:49;;;;;;;9.32;3.20;;;;;;;13.24;92.04;101555.66;5158825;28;20106;-73
2023/05/20 06:29:20;;;;;;;7.20;3.00;;;;;;;13.41;92.39;101551.56;5156696;28;20022;-72
2023/05/20 06:31:50;;;;;;;5.22;3.13;;;;;;;13.51;92.88;101546.88;5161554;28;20607;-73
2023/05/20 06:34:21;;;;;;;6.82;3.13;;;;;;;13.69;92.23;101556.81;5156580;28;20044;-71
2023/05/20 06:36:52;;;;;;;6.80;3.03;;;;;;;13.64;91.76;101554.34;5162344;28;20049;-72
2023/05/20 06:39:22;;;;;;;6.20;3.35;;;;;;;13.57;92.90;101559.84;5163563;28;20133;-72
2023/05/20 06:41:52;;;;;;;9.18;3.35;;;;;;;13.43;92.98;101544.50;5152681;28;20113;-72
2023/05/20 06:44:23;;;;;;;10.95;3.28;;;;;;;13.61;93.52;101543.91;5157938;28;20034;-72
2023/05/20 06:46:53;;;;;;;11.15;3.60;;;;;;;13.58;92.86;101541.38;5154721;28;20376;-73
2023/05/20 06:49:23;;;;;;;6.57;3.70;;;;;;;13.49;92.77;101538.22;5159564;28;20235;-72
2023/05/20 06:51:54;;;;;;;7.60;3.78;;;;;;;13.51;93.99;101532.00;5153252;28;20018;-75
2023/05/20 06:54:24;;;;;;;7.65;3.50;;;;;;;13.63;93.68;101536.88;5157950;28;20053;-72
2023/05/20 06:56:54;;;;;;;8.80;3.80;;;;;;;13.56;94.13;101542.38;5150356;28;20030;-72
2023/05/20 06:59:25;;;;;;;6.82;3.83;;;;;;;13.49;94.94;101538.22;5151718;28;20677;-72
2023/05/20 07:01:55;;;;;;;6.82;3.78;;;;;;;13.57;94.63;101530.97;5152688;28;20109;-72
2023/05/20 07:04:25;;;;;;;10.00;3.60;;;;;;;13.60;94.95;101536.09;5149382;28;20029;-73
2023/05/20 07:06:56;;;;;;;6.00;3.47;;;;;;;13.70;93.62;101534.88;5152976;28;20180;-71
2023/05/20 07:09:26;;;;;;;6.00;3.50;;;;;;;13.56;94.12;101535.34;5157946;28;20566;-73
2023/05/20 07:11:56;;;;;;;10.05;4.05;;;;;;;13.48;93.78;101536.50;5150470;28;20018;-72
2023/05/20 07:14:26;;;;;;;7.90;3.97;;;;;;;13.50;94.50;101545.19;5154979;28;20042;-72
2023/05/20 07:16:57;;;;;;;7.95;3.80;;;;;;;13.66;94.46;101555.16;5151344;28;20026;-72
2023/05/20 07:19:27;;;;;;;9.35;3.90;;;;;;;13.57;94.69;101552.81;5157964;28;20503;-73
2023/05/20 07:21:57;;;;;;;7.07;3.90;;;;;;;13.69;94.31;101554.19;5156986;28;20057;-74
2023/05/20 07:24:28;;;;;;;9.55;4.10;;;;;;;13.89;92.78;101554.41;5153363;28;20484;-73
2023/05/20 07:26:58;;;;;;;10.38;4.30;;;;;;;13.92;92.66;101560.41;5154512;28;20040;-75
2023/05/20 07:29:28;;;;;;;8.18;3.88;;;;;;;13.99;92.55;101550.53;5157150;28;20420;-72
2023/05/20 07:31:59;;;;;;;8.85;3.80;;;;;;;14.04;91.77;101560.00;5151041;28;20076;-72
2023/05/20 07:34:29;;;;;;;8.55;3.72;;;;;;;14.09;91.70;101557.22;5154430;28;20113;-73
2023/05/20 07:37:00;;;;;;;7.00;3.72;;;;;;;13.89;93.20;101550.00;5153545;28;20651;-72
2023/05/20 07:39:30;;;;;;;6.28;3.72;;;;;;;13.65;94.19;101550.81;5159457;28;20511;-72
2023/05/20 07:42:00;;;;;;;8.95;3.67;;;;;;;13.72;94.37;101548.84;5159224;28;20431;-73
2023/05/20 07:44:31;;;;;;;7.55;4.00;;;;;;;13.59;95.12;101545.75;5158200;28;20444;-72
2023/05/20 07:47:02;;;;;;;9.75;4.10;;;;;;;13.62;95.45;101547.41;5157919;28;20030;-71
2023/05/20 07:49:32;;;;;;;9.25;3.97;;;;;;;13.59;95.70;101540.47;5158378;28;20030;-73
2023/05/20 07:52:03;;;;;;;7.00;3.72;;;;;;;13.59;95.44;101532.59;5157228;28;20534;-72
2023/05/20 07:54:33;;;;;;;7.28;3.80;;;;;;;13.52;95.98;101538.09;5157375;28;20093;-71
2023/05/20 07:57:04;;;;;;;7.00;3.80;;;;;;;13.51;95.73;101531.13;5159237;28;20022;-73
2023/05/20 07:59:34;;;;;;;12.23;4.25;;;;;;;13.59;95.59;101535.22;5168238;28;20022;-73
2023/05/20 08:02:05;;;;;;;7.88;4.63;;;;;;;13.64;95.39;101533.34;5157509;28;20085;-72
2023/05/20 08:04:35;;;;;;;8.52;3.78;;;;;;;13.75;94.77;101530.34;5177232;28;20029;-73
2023/05/20 08:07:06;;;;;;;8.30;3.60;;;;;;;13.82;94.18;101531.84;5153767;28;20109;-72
2023/05/20 08:09:36;;;;;;;8.95;3.50;;;;;;;13.98;93.26;101525.16;5149899;28;20466;-74
2023/05/20 08:12:06;;;;;;;6.70;3.60;;;;;;;14.00;92.70;101532.09;5153458;28;20081;-71
2023/05/20 08:14:36;;;;;;;8.48;3.97;;;;;;;14.51;91.43;101529.41;5157340;28;20030;-73
2023/05/20 08:17:07;;;;;;;5.65;3.28;;;;;;;14.75;89.52;101528.53;5155486;28;20061;-73
2023/05/20 08:19:37;;;;;;;5.63;3.35;;;;;;;14.55;89.65;101531.03;5157060;28;20133;-73
2023/05/20 08:22:07;;;;;;;6.68;3.20;;;;;;;14.69;89.18;101523.47;5154284;28;20042;-72
2023/05/20 08:24:38;;;;;;;6.13;3.42;;;;;;;14.85;89.57;101515.81;5152446;28;20105;-75
2023/05/20 08:27:08;;;;;;;10.93;3.67;;;;;;;14.74;88.57;101516.28;5152893;28;20036;-72
2023/05/20 08:29:38;;;;;;;7.03;3.47;;;;;;;14.98;88.19;101519.69;5150376;28;20030;-74
2023/05/20 08:32:08;;;;;;;7.35;3.22;;;;;;;15.02;87.80;101505.50;5152935;28;20479;-73
2023/05/20 08:34:39;;;;;;;6.05;3.22;;;;;;;15.22;87.98;101508.19;5167512;28;20044;-72
2023/05/20 08:37:09;;;;;;;8.48;3.53;;;;;;;15.31;86.27;101510.50;5158621;28;20034;-73
2023/05/20 08:39:39;;;;;;;6.45;3.72;;;;;;;15.44;86.20;101509.09;5161775;28;20065;-73
2023/05/20 08:42:12;;;;;;;7.65;3.30;;;;;;;15.63;86.19;101506.56;5157468;28;20030;-73
2023/05/20 08:44:45;;;;;;;5.78;3.22;;;;;;;15.98;85.85;101498.91;5156723;28;20034;-73
2023/05/20 08:47:16;;;;;;;6.22;3.25;;;;;;;16.04;86.47;101505.69;5160958;28;20404;-73
2023/05/20 08:49:47;;;;;;;7.00;3.15;;;;;;;16.02;86.53;101499.63;5170508;28;20018;-72
2023/05/20 08:52:21;;;;;;;7.72;3.53;;;;;;;15.68;85.96;101505.47;5162414;28;20018;-72
2023/05/20 08:54:52;;;;;;;5.88;2.92;;;;;;;15.55;87.16;101511.31;5162643;28;20209;-74
2023/05/20 08:57:23;;;;;;;7.75;3.40;;;;;;;15.38;87.21;101511.97;5164637;28;20473;-72
2023/05/20 08:59:55;;;;;;;5.40;2.90;;;;;;;15.12;88.18;101513.88;5166001;28;20037;-72
2023/05/20 09:02:25;;;;;;;6.50;3.38;;;;;;;15.11;89.40;101510.41;5173351;28;20578;-72
2023/05/20 09:04:56;;;;;;;6.30;3.45;;;;;;;15.01;89.31;101501.16;5162392;28;20073;-72
2023/05/20 09:07:27;;;;;;;6.55;3.42;;;;;;;15.10;89.35;101513.97;5158625;28;20026;-73
2023/05/20 09:09:58;;;;;;;7.72;3.50;;;;;;;15.18;88.72;101503.97;5158234;28;20025;-72
2023/05/20 09:12:28;;;;;;;5.95;3.22;;;;;;;15.02;88.50;101507.28;5159209;28;20491;-72
2023/05/20 09:14:59;;;;;;;9.30;3.22;;;;;;;15.27;87.31;101498.34;5161729;28;20049;-73
2023/05/20 09:17:29;;;;;;;6.47;3.40;;;;;;;15.38;87.11;101495.31;5163169;28;20095;-73
2023/05/20 09:20:00;;;;;;;7.10;3.53;;;;;;;15.52;89.23;101499.09;5158955;28;20423;-73
2023/05/20 09:22:30;;;;;;;6.05;3.10;;;;;;;15.42;87.44;101502.19;5157328;28;20030;-73
2023/05/20 09:25:01;;;;;;;6.18;3.15;;;;;;;15.51;85.91;101493.91;5157867;28;20029;-73
2023/05/20 09:27:31;;;;;;;4.93;2.80;;;;;;;15.42;86.49;101497.78;5163216;28;20026;-73
2023/05/20 09:30:06;;;;;;;5.47;2.78;;;;;;;15.35;85.84;101495.44;5167095;28;20029;-72
2023/05/20 09:32:37;;;;;;;4.28;2.53;;;;;;;15.32;85.57;101496.41;5160800;28;20021;-73
2023/05/20 09:35:07;;;;;;;5.50;2.33;;;;;;;15.55;84.50;101493.69;5156969;28;20034;-72
2023/05/20 09:37:41;;;;;;;7.32;2.60;;;;;;;15.74;85.25;101493.81;5153672;28;20026;-72
2023/05/20 09:40:14;;;;;;;5.55;2.65;;;;;;;15.49;85.65;101490.44;5158357;28;20030;-73
2023/05/20 09:42:51;;;;;;;7.75;2.83;;;;;;;15.49;86.38;101486.06;5155693;28;20037;-74
2023/05/20 09:45:23;;;;;;;4.47;2.42;;;;;;;15.44;86.06;101488.03;5160481;28;20530;-74
2023/05/20 09:47:55;;;;;;;4.93;2.60;;;;;;;15.57;85.49;101486.59;5162249;28;20042;-73
2023/05/20 09:50:27;;;;;;;4.53;2.45;;;;;;;15.54;85.93;101488.50;5167375;28;20507;-72
2023/05/20 09:53:03;;;;;;;4.43;2.20;;;;;;;15.67;84.88;101500.28;5163414;28;20256;-71
2023/05/20 09:55:34;;;;;;;5.15;2.17;;;;;;;15.75;85.16;101485.84;5165135;28;20042;-72
2023/05/20 09:58:04;;;;;;;3.85;2.28;;;;;;;15.75;84.89;101484.97;5161788;28;20180;-72
2023/05/20 10:00:35;;;;;;;4.82;2.97;;;;;;;15.94;84.05;101486.78;5163961;28;20045;-72
2023/05/20 10:03:05;;;;;;;7.85;2.20;;;;;;;15.89;84.43;101487.88;5162072;28;20046;-72
2023/05/20 10:05:40;;;;;;;4.20;2.10;;;;;;;15.52;85.19;101488.56;5164258;28;20035;-73
2023/05/20 10:08:13;;;;;;;3.65;2.30;;;;;;;15.45;85.54;101495.00;5158256;28;20027;-73
2023/05/20 10:11:02;;;;;;;4.20;2.30;;;;;;;15.50;86.03;101484.28;5159362;28;20038;-73
2023/05/20 10:13:53;;;;;;;6.00;2.65;;;;;;;15.35;86.16;101484.91;5161629;28;20091;-72
2023/05/20 10:16:42;;;;;;;5.05;2.30;;;;;;;15.42;87.19;101481.97;5163962;28;20080;-72
2023/05/20 10:19:29;;;;;;;13.18;2.53;;;;;;;15.52;86.21;101478.03;5163513;28;20392;-72
2023/05/20 10:22:04;;;;;;;6.15;2.78;;;;;;;15.55;85.69;101474.41;5157104;28;20105;-73
2023/05/20 10:24:42;;;;;;;4.05;2.17;;;;;;;15.78;86.24;101472.53;5163906;28;20037;-73
2023/05/20 10:27:14;;;;;;;5.20;2.60;;;;;;;16.20;84.93;101456.63;5159328;28;20039;-73
2023/05/20 10:29:53;;;;;;;5.68;2.40;;;;;;;16.14;83.82;101456.88;5164325;28;20034;-74
2023/05/20 10:32:24;;;;;;;4.60;2.22;;;;;;;16.13;83.86;101461.31;5178788;28;20496;-73
2023/05/20 10:35:07;;;;;;;4.93;2.42;;;;;;;16.10;84.31;101461.44;5167408;28;20049;-72
2023/05/20 10:37:43;;;;;;;5.65;2.38;;;;;;;16.18;83.88;101459.31;5159401;28;20034;-73
2023/05/20 10:40:16;;;;;;;7.80;2.53;;;;;;;16.07;84.82;101464.19;5155658;28;20042;-73
2023/05/20 10:42:48;;;;;;;6.13;2.90;;;;;;;16.08;83.17;101463.28;5161928;28;20543;-73
2023/05/20 10:45:27;;;;;;;6.00;2.60;;;;;;;16.21;84.35;101469.72;5160025;28;20257;-72
2023/05/20 10:47:57;;;;;;;4.80;2.78;;;;;;;16.33;84.80;101466.56;5154772;28;20468;-72
2023/05/20 10:50:37;;;;;;;6.57;2.58;;;;;;;16.11;83.87;101460.53;5161286;28;20049;-73
2023/05/20 10:53:13;;;;;;;6.72;2.90;;;;;;;16.11;85.46;101457.00;5164959;28;20085;-72
2023/05/20 10:55:53;;;;;;;6.00;2.83;;;;;;;16.29;84.33;101458.84;5176364;28;20046;-73
2023/05/20 10:58:23;;;;;;;5.93;2.63;;;;;;;16.54;83.19;101448.94;5169888;28;20093;-72
2023/05/20 11:00:54;;;;;;;6.95;3.15;;;;;;;16.20;83.78;101446.06;5159381;28;20254;-71
2023/05/20 11:03:25;;;;;;;5.20;2.83;;;;;;;16.32;83.17;101456.94;5159210;28;20019;-73
2023/05/20 11:05:55;;;;;;;7.75;2.78;;;;;;;16.31;83.95;101444.66;5156467;28;20048;-72
2023/05/20 11:08:31;;;;;;;7.75;3.00;;;;;;;16.31;84.41;101442.03;5157663;28;20024;-73
2023/05/20 11:11:02;;;;;;;5.53;3.03;;;;;;;16.23;83.71;101440.66;5154277;28;20300;-72
2023/05/20 11:13:32;;;;;;;4.97;2.72;;;;;;;16.27;83.18;101443.09;5156259;28;20036;-72
2023/05/20 11:16:04;;;;;;;5.05;2.80;;;;;;;16.29;82.43;101441.25;5162675;28;20037;-71
2023/05/20 11:18:35;;;;;;;5.85;2.80;;;;;;;16.33;82.98;101437.53;5158901;28;20030;-71
2023/05/20 11:21:05;;;;;;;6.72;2.83;;;;;;;16.31;83.09;101443.78;5153569;28;20042;-72
2023/05/20 11:23:36;;;;;;;7.25;2.60;;;;;;;16.29;83.59;101435.97;5154925;28;20030;-73
2023/05/20 11:26:06;;;;;;;7.03;2.92;;;;;;;16.07;84.05;101435.19;5156093;28;20182;-73
2023/05/20 11:28:37;;;;;;;5.72;2.75;;;;;;;16.42;83.93;101429.22;5152963;28;20034;-71
2023/05/20 11:31:08;;;;;;;5.72;3.22;;;;;;;16.64;82.67;101421.16;5154398;28;20053;-72
2023/05/20 11:33:42;;;;;;;5.40;2.60;;;;;;;16.39;83.90;101416.16;5157667;28;20168;-74
2023/05/20 11:36:13;;;;;;;5.60;2.85;;;;;;;16.51;83.27;101402.41;5168479;28;20134;-72
2023/05/20 11:38:45;;;;;;;5.07;2.78;;;;;;;16.55;84.66;101401.34;5155458;28;20498;-75
2023/05/20 11:41:16;;;;;;;6.85;2.95;;;;;;;16.56;84.15;101412.75;5155056;28;20038;-72
2023/05/20 11:43:53;;;;;;;5.45;3.08;;;;;;;16.51;84.02;101410.31;5155259;28;20034;-72